Home > Products > Valid Products > TAF

000
FTUS44 KMOB 191700
TAFPNS
TAF
KPNS 191721Z 1918/2018 07005KT P6SM SCT050 OVC070
     FM200000 06008KT 5SM SHRA BR OVC025
      TEMPO 2000/2004 1SM +RA BR OVC015
     FM200400 05008KT 4SM -RA BR OVC015
      TEMPO 2004/2008 1SM +RA BR OVC008
     FM200800 04009KT 4SM BR VCSH OVC008
     FM201600 03010KT 4SM BR VCSH OVC015=



000
FTUS44 KMOB 191700
TAFPNS
TAF
KPNS 191721Z 1918/2018 07005KT P6SM SCT050 OVC070
     FM200000 06008KT 5SM SHRA BR OVC025
      TEMPO 2000/2004 1SM +RA BR OVC015
     FM200400 05008KT 4SM -RA BR OVC015
      TEMPO 2004/2008 1SM +RA BR OVC008
     FM200800 04009KT 4SM BR VCSH OVC008
     FM201600 03010KT 4SM BR VCSH OVC015=



000
FTUS44 KMOB 191700
TAFMOB
TAF
KMOB 191721Z 1918/2018 07008KT P6SM FEW030 SCT070 BKN100
     FM192300 06008KT 5SM SHRA BR OVC025
      TEMPO 1923/2003 1SM +RA BR OVC015
     FM200300 05008KT 4SM -RA BR OVC015
      TEMPO 2003/2007 1SM +RA BR OVC008
     FM200700 04009KT 4SM BR VCSH OVC008
     FM201500 03010KT 4SM BR VCSH OVC015=



000
FTUS44 KMOB 191700
TAFMOB
TAF
KMOB 191721Z 1918/2018 07008KT P6SM FEW030 SCT070 BKN100
     FM192300 06008KT 5SM SHRA BR OVC025
      TEMPO 1923/2003 1SM +RA BR OVC015
     FM200300 05008KT 4SM -RA BR OVC015
      TEMPO 2003/2007 1SM +RA BR OVC008
     FM200700 04009KT 4SM BR VCSH OVC008
     FM201500 03010KT 4SM BR VCSH OVC015=



000
FTUS44 KMOB 191400 AAB
TAFMOB
TAF AMD
KMOB 191453Z 1915/2012 06012KT P6SM -RA BKN030 OVC060
      TEMPO 1915/1918 1SM +RA BR BKN015
     FM191800 06007KT 4SM -RA BR OVC025
      TEMPO 1918/1921 2SM RA OVC015=



000
FTUS44 KMOB 191400 AAB
TAFMOB
TAF AMD
KMOB 191453Z 1915/2012 06012KT P6SM -RA BKN030 OVC060
      TEMPO 1915/1918 1SM +RA BR BKN015
     FM191800 06007KT 4SM -RA BR OVC025
      TEMPO 1918/1921 2SM RA OVC015=



000
FTUS44 KMOB 191300 AAA
TAFMOB
TAF AMD
KMOB 191326Z 1913/2012 06012KT P6SM -RA BKN030 OVC060
      TEMPO 1913/1917 3SM RA BR BKN015
     FM191700 06007KT 4SM -RA BR OVC025
      TEMPO 1917/1921 2SM RA OVC015=



000
FTUS44 KMOB 191300 AAA
TAFMOB
TAF AMD
KMOB 191326Z 1913/2012 06012KT P6SM -RA BKN030 OVC060
      TEMPO 1913/1917 3SM RA BR BKN015
     FM191700 06007KT 4SM -RA BR OVC025
      TEMPO 1917/1921 2SM RA OVC015=



000
FTUS44 KMOB 191100
TAFMOB
TAF
KMOB 191139Z 1912/2012 05007KT P6SM OVC035
      TEMPO 1913/1917 3SM RA BR BKN015
     FM191700 06007KT 4SM -RA BR OVC025
      TEMPO 1917/1921 2SM RA OVC015=



000
FTUS44 KMOB 191100
TAFMOB
TAF
KMOB 191139Z 1912/2012 05007KT P6SM OVC035
      TEMPO 1913/1917 3SM RA BR BKN015
     FM191700 06007KT 4SM -RA BR OVC025
      TEMPO 1917/1921 2SM RA OVC015=



000
FTUS44 KMOB 191100
TAFPNS
TAF
KPNS 191139Z 1912/2012 02006KT P6SM FEW035 BKN045 OVC060
      TEMPO 1915/1919 3SM RA BR BKN015
     FM191900 08006KT 4SM -RA BR OVC025
      TEMPO 1919/1923 2SM RA OVC015=



000
FTUS44 KMOB 191100
TAFPNS
TAF
KPNS 191139Z 1912/2012 02006KT P6SM FEW035 BKN045 OVC060
      TEMPO 1915/1919 3SM RA BR BKN015
     FM191900 08006KT 4SM -RA BR OVC025
      TEMPO 1919/1923 2SM RA OVC015=



000
FTUS44 KMOB 190500 RRA
TAFPNS
TAF
KPNS 190551Z 1906/2006 34004KT P6SM BKN080 OVC100
     FM191200 05006KT P6SM -RA BKN040
      TEMPO 1915/1919 3SM RA BR BKN015
     FM200100 08006KT 4SM -RA BR OVC025=



000
FTUS44 KMOB 190500 RRA
TAFMOB
TAF
KMOB 190551Z 1906/2006 03007KT P6SM SCT025 BKN035 OVC090
     FM191100 05006KT P6SM -RA BKN035
      TEMPO 1914/1918 3SM RA BR BKN015
     FM200000 06007KT 4SM -RA BR OVC025=



000
FTUS44 KMOB 190500 RRA
TAFMOB
TAF
KMOB 190551Z 1906/2006 03007KT P6SM SCT025 BKN035 OVC090
     FM191100 05006KT P6SM -RA BKN035
      TEMPO 1914/1918 3SM RA BR BKN015
     FM200000 06007KT 4SM -RA BR OVC025=



000
FTUS44 KMOB 190500 RRA
TAFPNS
TAF
KPNS 190551Z 1906/2006 34004KT P6SM BKN080 OVC100
     FM191200 05006KT P6SM -RA BKN040
      TEMPO 1915/1919 3SM RA BR BKN015
     FM200100 08006KT 4SM -RA BR OVC025=



000
FTUS44 KMOB 182300 RRA
TAFMOB
TAF
KMOB 182353Z 1900/1924 13005KT P6SM FEW100 SCT120 BKN250
     FM190100 03004KT P6SM BKN050
     FM191100 05006KT P6SM -RA BKN035
      TEMPO 1914/1918 3SM RA BR BKN015=



000
FTUS44 KMOB 182300 RRA
TAFMOB
TAF
KMOB 182353Z 1900/1924 13005KT P6SM FEW100 SCT120 BKN250
     FM190100 03004KT P6SM BKN050
     FM191100 05006KT P6SM -RA BKN035
      TEMPO 1914/1918 3SM RA BR BKN015=



000
FTUS44 KMOB 182300 RRA
TAFPNS
TAF
KPNS 182353Z 1900/1924 20003KT P6SM OVC110
     FM190600 03004KT P6SM BKN050
     FM191200 05006KT P6SM -RA BKN040
      TEMPO 1915/1919 3SM RA BR BKN015=



000
FTUS44 KMOB 182300 RRA
TAFPNS
TAF
KPNS 182353Z 1900/1924 20003KT P6SM OVC110
     FM190600 03004KT P6SM BKN050
     FM191200 05006KT P6SM -RA BKN040
      TEMPO 1915/1919 3SM RA BR BKN015=



000
FTUS44 KMOB 181700
TAFPNS
TAF
KPNS 181737Z 1818/1918 VRB03KT P6SM SCT100 SCT250
     FM190600 03004KT P6SM BKN050
     FM191200 05006KT P6SM -RA BKN040
      TEMPO 1914/1918 3SM RA BR BKN015=



000
FTUS44 KMOB 181700
TAFPNS
TAF
KPNS 181737Z 1818/1918 VRB03KT P6SM SCT100 SCT250
     FM190600 03004KT P6SM BKN050
     FM191200 05006KT P6SM -RA BKN040
      TEMPO 1914/1918 3SM RA BR BKN015=



000
FTUS44 KMOB 181700
TAFMOB
TAF
KMOB 181737Z 1818/1918 VRB03KT P6SM SCT100 BKN250
     FM190100 03004KT P6SM BKN050
     FM191200 05006KT P6SM -RA BKN035
      TEMPO 1914/1918 3SM RA BR BKN015=



000
FTUS44 KMOB 181700
TAFMOB
TAF
KMOB 181737Z 1818/1918 VRB03KT P6SM SCT100 BKN250
     FM190100 03004KT P6SM BKN050
     FM191200 05006KT P6SM -RA BKN035
      TEMPO 1914/1918 3SM RA BR BKN015=



000
FTUS44 KMOB 181100 RRA
TAFPNS
TAF
KPNS 181157Z 1812/1912 01004KT P6SM SCT250
     FM181500 04005KT P6SM SCT100 BKN250
     FM190100 36003KT P6SM BKN080=



000
FTUS44 KMOB 181100 RRA
TAFMOB
TAF
KMOB 181157Z 1812/1912 05004KT P6SM SCT250
     FM181500 06004KT P6SM SCT080 BKN250
     FM190100 03004KT P6SM BKN050=



000
FTUS44 KMOB 181100 RRA
TAFMOB
TAF
KMOB 181157Z 1812/1912 05004KT P6SM SCT250
     FM181500 06004KT P6SM SCT080 BKN250
     FM190100 03004KT P6SM BKN050=



000
FTUS44 KMOB 181100 RRA
TAFPNS
TAF
KPNS 181157Z 1812/1912 01004KT P6SM SCT250
     FM181500 04005KT P6SM SCT100 BKN250
     FM190100 36003KT P6SM BKN080=



000
FTUS44 KMOB 181100 RRA
TAFPNS
TAF
KPNS 181157Z 1812/1912 01004KT P6SM SCT250
     FM181500 04005KT P6SM SCT100 BKN250
     FM190100 36003KT P6SM BKN080=



000
FTUS44 KMOB 181100 RRA
TAFMOB
TAF
KMOB 181157Z 1812/1912 05004KT P6SM SCT250
     FM181500 06004KT P6SM SCT080 BKN250
     FM190100 03004KT P6SM BKN050=



000
FTUS44 KMOB 180500
TAFMOB
TAF
KMOB 180539Z 1806/1906 VRB03KT P6SM BKN250
     FM181500 06004KT P6SM SCT080 BKN250
     FM190100 03004KT P6SM BKN050=



000
FTUS44 KMOB 180500
TAFPNS
TAF
KPNS 180539Z 1806/1906 36004KT P6SM BKN250
     FM181500 04005KT P6SM SCT100 BKN250
     FM190100 36003KT P6SM BKN080=



000
FTUS44 KMOB 180500
TAFMOB
TAF
KMOB 180539Z 1806/1906 VRB03KT P6SM BKN250
     FM181500 06004KT P6SM SCT080 BKN250
     FM190100 03004KT P6SM BKN050=



000
FTUS44 KMOB 180500
TAFPNS
TAF
KPNS 180539Z 1806/1906 36004KT P6SM BKN250
     FM181500 04005KT P6SM SCT100 BKN250
     FM190100 36003KT P6SM BKN080=



000
FTUS44 KMOB 172300
TAFPNS
TAF
KPNS 172324Z 1800/1824 36004KT P6SM SCT250
     FM181500 05005KT P6SM SCT100 BKN250=



000
FTUS44 KMOB 172300
TAFPNS
TAF
KPNS 172324Z 1800/1824 36004KT P6SM SCT250
     FM181500 05005KT P6SM SCT100 BKN250=



000
FTUS44 KMOB 172300
TAFMOB
TAF
KMOB 172324Z 1800/1824 36003KT P6SM SCT250
     FM181500 05004KT P6SM SCT100 BKN250=



000
FTUS44 KMOB 172300
TAFMOB
TAF
KMOB 172324Z 1800/1824 36003KT P6SM SCT250
     FM181500 05004KT P6SM SCT100 BKN250=



000
FTUS44 KMOB 171700
TAFPNS
TAF
KPNS 171725Z 1718/1818 36003KT P6SM BKN250
     FM181500 05004KT P6SM BKN250=



000
FTUS44 KMOB 171700
TAFPNS
TAF
KPNS 171725Z 1718/1818 36003KT P6SM BKN250
     FM181500 05004KT P6SM BKN250=



000
FTUS44 KMOB 171700
TAFMOB
TAF
KMOB 171725Z 1718/1818 35003KT P6SM BKN250
     FM181500 06003KT P6SM SCT100 BKN250=



000
FTUS44 KMOB 171700
TAFMOB
TAF
KMOB 171725Z 1718/1818 35003KT P6SM BKN250
     FM181500 06003KT P6SM SCT100 BKN250=



000
FTUS44 KMOB 171100
TAFMOB
TAF
KMOB 171129Z 1712/1812 34004KT P6SM FEW250
     FM171800 01006KT P6SM SCT250=



000
FTUS44 KMOB 171100
TAFPNS
TAF
KPNS 171129Z 1712/1812 36004KT P6SM SKC
     FM171800 01006KT P6SM SCT250=



000
FTUS44 KMOB 170500
TAFPNS
TAF
KPNS 170532Z 1706/1806 36007KT P6SM SCT250=



000
FTUS44 KMOB 170500
TAFMOB
TAF
KMOB 170532Z 1706/1806 34004KT P6SM FEW250
     FM171300 01006KT P6SM SCT250=



000
FTUS44 KMOB 162300
TAFPNS
TAF
KPNS 162335Z 1700/1724 32006KT P6SM FEW250
     FM170900 36006KT P6SM SCT250=



000
FTUS44 KMOB 162300
TAFPNS
TAF
KPNS 162335Z 1700/1724 32006KT P6SM FEW250
     FM170900 36006KT P6SM SCT250=



000
FTUS44 KMOB 162300
TAFMOB
TAF
KMOB 162335Z 1700/1724 33004KT P6SM SCT250
     FM171300 01006KT P6SM SCT250=



000
FTUS44 KMOB 162100 AAA
TAFMOB
TAF AMD
KMOB 162142Z 1622/1718 29008KT P6SM FEW250
     FM170300 33004KT P6SM SKC=



000
FTUS44 KMOB 162100 AAA
TAFMOB
TAF AMD
KMOB 162142Z 1622/1718 29008KT P6SM FEW250
     FM170300 33004KT P6SM SKC=



000
FTUS44 KMOB 162100 AAA
TAFPNS
TAF AMD
KPNS 162142Z 1622/1718 27014G19KT P6SM SKC
     FM170600 34004KT P6SM SKC=



000
FTUS44 KMOB 162100 AAA
TAFPNS
TAF AMD
KPNS 162142Z 1622/1718 27014G19KT P6SM SKC
     FM170600 34004KT P6SM SKC=



    US Dept of Commerce
    National Oceanic and Atmospheric Administration
    National Weather Service
    1325 East West Highway
    Silver Spring, MD 20910
    Page Author: NWS Internet Services Team
Disclaimer
Information Quality
Credits
Glossary
Privacy Policy
Freedom of Information Act (FOIA)
About Us
Career Opportunities